• Join FlightAware (Why Join?)
  • Login
  • US Flag 
Rudolph Flight #1: Arrived! 
08:41AM EST


 

Airport Tracker/Info


-or-


 

Live Flight TrackerFlight Track Log ✈ EGF4652 ✈ 11-Jun-2013 ✈ KATL - KLGA

Flight Track Log - Related Links

Times and Time Zones

All times are in EDT time to prevent confusion due to time zone crossing. See the EGF4652 flight status page for this flight to view local times or setup timezone preferences in your user account.

Time Position Orientation Groundspeed Altitude Reporting Facility
EDT Latitude Longitude Course Direction KTS MPH feet Rate Location/Type
06:15AM 33.6500 -84.4667 104° East 154 177 2,800  Level Atlanta TRACON
06:16AM 33.6500 -84.5333 270° West 202 232 4,600 1,860 Climbing Atlanta TRACON
06:17AM 33.8939 -84.1002 75° East  Level Estimated
06:17AM 33.7000 -84.5667 331° Northwest 263 303 6,600  Level Atlanta TRACON
06:18AM 33.8514 -83.9588 110° East  Level FlightAware Approximate
06:18AM 33.7667 -84.5833 348° North 283 326 9,200  Level Atlanta TRACON
06:19AM 33.9378 -83.8501 76° East  Level Estimated
06:19AM 33.8167 -84.5167 48° Northeast 313 360 11,800  Level Atlanta TRACON
06:20AM 34.0241 -83.7412 64° Northeast  Level Estimated
06:21AM 33.9931 -83.5953 104° East  Level FlightAware Approximate
06:21AM 33.8067 -84.2614 93° East 354 407 14,500  Level Atlanta Center
06:22AM 33.8067 -84.1414 90° East 379 436 16,100 1,620 Climbing Atlanta Center
06:23AM 33.8444 -84.0239 69° East 377 434 17,800 1,740 Climbing Atlanta Center
06:24AM 33.8986 -83.9111 60° Northeast 377 434 19,600 1,440 Climbing Atlanta Center
06:25AM 33.9547 -83.7858 62° Northeast 382 440 20,700 1,200 Climbing Atlanta Center
06:26AM 34.0128 -83.6653 60° Northeast 400 460 22,100 1,440 Climbing Atlanta Center
06:27AM 34.0708 -83.5422 60° Northeast 406 467 23,600 1,380 Climbing Atlanta Center
06:28AM 34.1286 -83.4189 60° Northeast 411 473 24,900 1,140 Climbing Atlanta Center
06:29AM 34.1864 -83.2931 61° Northeast 420 483 25,900 960 Climbing Atlanta Center
06:30AM 34.2481 -83.1592 61° Northeast 438 504 26,900 1,020 Climbing Atlanta Center
06:31AM 34.3097 -83.0253 61° Northeast 445 512 28,000 1,020 Climbing Atlanta Center
06:32AM 34.3711 -82.8886 61° Northeast 451 519 29,000 960 Climbing Atlanta Center
06:33AM 34.4325 -82.7519 61° Northeast 456 525 30,000 960 Climbing Atlanta Center
06:34AM 34.4978 -82.6122 60° Northeast 462 532 31,000 900 Climbing Atlanta Center
06:35AM 34.5628 -82.4775 60° Northeast 462 532 31,900 900 Climbing Atlanta Center
06:36AM 34.6278 -82.3375 61° Northeast 467 537 32,900 1,080 Climbing Atlanta Center
06:37AM 34.6864 -82.2022 62° Northeast 467 537 34,100 1,080 Climbing Atlanta Center
06:38AM 34.7489 -82.0669 61° Northeast 461 531 35,100 960 Climbing Atlanta Center
06:39AM 34.8072 -81.9339 62° Northeast 455 524 36,100 900 Climbing Atlanta Center
06:40AM 34.8594 -81.8189 61° Northeast 440 506 37,000 420 Climbing Atlanta Center
06:41AM 34.9194 -81.6881 61° Northeast 440 506 37,000  Level Atlanta Center
06:42AM 34.9794 -81.5494 62° Northeast 446 513 37,000  Level Atlanta Center
06:43AM 35.0433 -81.4056 61° Northeast 469 540 37,000  Level Atlanta Center
06:44AM 35.1028 -81.2614 63° Northeast 469 540 37,100 480 Climbing Atlanta Center
06:45AM 35.1661 -81.1194 61° Northeast 469 540 38,000 720 Climbing Atlanta Center
06:46AM 35.2253 -80.9775 63° Northeast 469 540 38,600 480 Climbing Atlanta Center
06:47AM 35.2864 -80.8406 61° Northeast 464 534 39,000 180 Climbing Atlanta Center
06:48AM 35.3533 -80.6878 62° Northeast 464 534 39,000  Level Atlanta Center
06:49AM 35.4139 -80.5450 62° Northeast 464 534 39,000  Level Atlanta Center
06:50AM 35.4767 -80.3994 62° Northeast 469 540 39,000  Level Atlanta Center
06:51AM 35.5369 -80.2539 63° Northeast 469 540 39,000  Level Atlanta Center
06:53AM 35.6536 -79.9964 61° Northeast 470 541 39,000  Level Washington Center
06:54AM 35.7153 -79.8439 63° Northeast 476 548 39,000  Level Washington Center
06:55AM 35.7811 -79.6911 62° Northeast 503 579 39,000  Level Washington Center
06:56AM 35.8617 -79.5364 57° Northeast 493 567 39,000  Level Washington Center
06:57AM 35.9342 -79.4219 52° Northeast 486 559 39,000  Level Washington Center
06:58AM 36.0217 -79.2900 51° Northeast 481 554 39,000  Level Washington Center
06:59AM 36.1192 -79.1739 44° Northeast 481 554 39,000  Level Washington Center
07:00AM 36.2144 -79.0572 45° Northeast 481 554 39,000  Level Washington Center
07:01AM 36.3139 -78.9378 44° Northeast 481 554 39,000  Level Washington Center
07:02AM 36.4089 -78.8181 45° Northeast 481 554 39,000  Level Washington Center
07:03AM 36.5058 -78.6981 45° Northeast 476 548 39,000  Level Washington Center
07:04AM 36.6094 -78.5703 45° Northeast 476 548 39,000  Level Washington Center
07:05AM 36.7022 -78.4467 47° Northeast 486 559 39,000  Level Washington Center
07:06AM 36.7989 -78.3258 45° Northeast 481 554 39,000  Level Washington Center
07:07AM 36.8953 -78.2044 45° Northeast 481 554 39,000  Level Washington Center
07:08AM 36.9897 -78.0856 45° Northeast 481 554 39,000  Level Washington Center
07:09AM 37.0881 -77.9639 45° Northeast 481 554 39,000  Level Washington Center
07:10AM 37.1822 -77.8442 45° Northeast 475 547 39,000  Level Washington Center
07:11AM 37.2806 -77.7164 46° Northeast 482 555 39,000  Level Washington Center
07:12AM 37.3786 -77.5939 45° Northeast 487 560 39,000  Level Washington Center
07:13AM 37.4744 -77.4681 46° Northeast 487 560 39,000  Level Washington Center
07:14AM 37.5722 -77.3422 46° Northeast 493 567 39,000  Level Washington Center
07:15AM 37.6722 -77.2158 45° Northeast 498 573 39,000  Level Washington Center
07:16AM 37.7697 -77.0867 46° Northeast 498 573 39,000  Level Washington Center
07:17AM 37.8694 -76.9569 46° Northeast 498 573 39,000  Level Washington Center
07:18AM 37.9644 -76.8297 47° Northeast 498 573 39,000  Level Washington Center
07:19AM 38.0639 -76.6967 46° Northeast 498 573 39,000  Level Washington Center
07:20AM 38.1608 -76.5689 46° Northeast 498 573 39,000  Level Washington Center
07:21AM 38.2597 -76.4406 46° Northeast 498 573 39,000  Level Washington Center
07:22AM 38.3647 -76.3278 40° Northeast 495 570 39,000  Level Washington Center
07:23AM 38.4781 -76.2228 36° Northeast 495 570 39,000 -1,320 Level Washington Center
07:24AM 38.5994 -76.1150 35° Northeast 510 587 36,500 -3,000 Descending Washington Center
07:25AM 38.7189 -75.9989 37° Northeast 522 601 33,100 -3,480 Descending Washington Center
07:26AM 38.8461 -75.8847 35° Northeast 537 618 29,600 -3,000 Descending Washington Center
07:27AM 38.9675 -75.7678 37° Northeast 549 632 27,000 -1,320 Descending Washington Center
07:28AM 39.0822 -75.6583 37° Northeast 538 619 27,000 -1,080 Level Washington Center
07:29AM 39.2008 -75.5486 36° Northeast 526 605 24,900 -1,680 Descending Washington Center
07:30AM 39.3031 -75.4547 35° Northeast 513 590 23,700 -1,380 Descending Washington Center
07:31AM 39.4217 -75.3497 34° Northeast 490 564 22,200 -1,500 Descending Washington Center
07:32AM 39.5275 -75.2553 35° Northeast 472 543 20,700 -1,620 Descending Washington Center
07:33AM 39.6336 -75.1550 36° Northeast 472 543 19,000 -1,860 Descending Washington Center
07:34AM 39.7414 -75.0572 35° Northeast 472 543 17,100 -2,040 Descending Washington Center
07:35AM 39.8431 -74.9728 33° Northeast 447 514 15,100 -1,860 Descending Washington Center
07:37AM 40.0000 -74.7667 45° Northeast 415 478 11,800 -1,740 Descending New York TRACON
07:38AM 40.0833 -74.6667 43° Northeast 404 465 10,100 -900 Descending New York TRACON
07:39AM 40.1667 -74.5500 47° Northeast 405 466 10,100  Level New York TRACON
07:40AM 40.2333 -74.4667 44° Northeast 360 414 10,100 -600 Level New York TRACON
07:41AM 40.3000 -74.3833 44° Northeast 306 352 8,900 -1,200 Descending New York TRACON
07:42AM 40.3667 -74.3167 37° Northeast 292 336 7,700 -900 Descending New York TRACON
07:43AM 40.4333 -74.2500 37° Northeast 291 335 7,100 -480 Descending New York TRACON
07:44AM 40.5000 -74.1833 37° Northeast 296 341 6,900 -900 Descending New York TRACON
07:45AM 40.5500 -74.1167 45° Northeast 296 341 5,400 -1,260 Descending New York TRACON
07:46AM 40.6333 -74.0333 37° Northeast 290 334 4,300 -660 Descending New York TRACON
07:47AM 40.6833 -73.9667 45° Northeast 282 325 4,100 -120 Descending New York TRACON
07:48AM 40.7333 -73.9000 45° Northeast 287 330 4,100  Level New York TRACON
07:49AM 40.7667 -73.8167 62° Northeast 265 305 4,100  Level New York TRACON
07:50AM 40.8167 -73.7500 45° Northeast 218 251 4,100  Level New York TRACON
07:51AM 40.8667 -73.7167 27° Northeast 213 245 4,100  Level New York TRACON
07:52AM 40.9000 -73.6667 49° Northeast 211 243 4,100 -420 Level New York TRACON
07:53AM 40.9500 -73.6833 346° North 195 224 3,300 -540 Descending New York TRACON
07:54AM 40.9500 -73.7333 270° West 174 200 3,100 -240 Descending New York TRACON